Time;durP1;ratioP1;P1;durP2;ratioP2;P2;SDS_P1;SDS_P2;PMS_P1;PMS_P2;Temp;Humidity;BMP_temperature;BMP_pressure;BME280_temperature;BME280_humidity;BME280_pressure;Samples;Min_cycle;Max_cycle;Signal;HPM_P1;HPM_P2
2021/08/15 00:02:09;;;;;;;0.08;0.08;;;;;;;21.70;57.21;101811.00;5052882;28;20104;-90
2021/08/15 00:04:52;;;;;;;0.00;0.00;;;;;;;21.72;57.53;101796.47;5060069;28;20029;-95
2021/08/15 00:07:19;;;;;;;0.10;0.10;;;;;;;21.72;56.99;101784.78;5061221;28;20134;-95
2021/08/15 00:10:06;;;;;;;0.10;0.10;;;;;;;21.73;56.85;101778.44;5060397;28;20094;-96
2021/08/15 00:12:32;;;;;;;0.28;0.28;;;;;;;21.77;56.46;101789.00;5054904;28;20032;-96
2021/08/15 00:14:59;;;;;;;0.03;0.03;;;;;;;21.73;56.75;101776.66;5056073;28;20183;-96
2021/08/15 00:17:25;;;;;;;0.10;0.10;;;;;;;21.71;56.57;101774.94;5059875;28;20025;-96
2021/08/15 00:22:18;;;;;;;0.05;0.05;;;;;;;21.68;56.08;101764.34;5019259;23;20512;-96
2021/08/15 00:24:44;;;;;;;0.05;0.05;;;;;;;21.62;56.76;101763.72;5020419;28;20038;-96
2021/08/15 00:27:11;;;;;;;0.10;0.10;;;;;;;21.52;57.30;101767.81;5025588;28;20018;-95
2021/08/15 00:29:42;;;;;;;0.10;0.10;;;;;;;21.54;57.17;101751.53;5035196;28;20021;-96
2021/08/15 00:32:14;;;;;;;0.10;0.10;;;;;;;21.48;57.41;101768.91;5032070;28;20034;-96
2021/08/15 00:34:42;;;;;;;;;;;;;;;21.57;56.37;101768.47;5033273;28;20038;-94
2021/08/15 00:37:09;;;;;;;0.03;0.03;;;;;;;21.38;56.93;101773.03;5023484;28;20361;-96
2021/08/15 00:39:35;;;;;;;3.00;0.47;;;;;;;21.29;57.35;101764.44;5029717;28;20026;-96
2021/08/15 00:44:34;;;;;;;0.32;0.32;;;;;;;21.25;57.81;101768.25;5043877;28;20497;-96
2021/08/15 00:47:01;;;;;;;0.17;0.17;;;;;;;21.20;57.52;101764.91;5042700;28;20040;-96
2021/08/15 00:49:28;;;;;;;0.00;0.00;;;;;;;21.10;57.89;101752.88;5043841;28;20391;-95
2021/08/15 00:51:54;;;;;;;0.10;0.10;;;;;;;21.02;58.03;101750.53;5052047;28;20430;-95
2021/08/15 00:54:21;;;;;;;0.00;0.00;;;;;;;21.01;58.21;101751.50;5049083;28;20029;-93
2021/08/15 00:56:49;;;;;;;0.10;0.10;;;;;;;20.93;58.40;101746.47;5052586;28;20053;-94
2021/08/15 00:59:17;;;;;;;0.13;0.13;;;;;;;20.99;58.35;101751.56;5052865;28;20342;-96
2021/08/15 01:01:44;;;;;;;0.00;0.00;;;;;;;20.93;58.70;101741.09;5053919;28;20033;-95
2021/08/15 01:04:11;;;;;;;0.40;0.40;;;;;;;20.91;58.82;101753.78;5053243;28;20025;-96
2021/08/15 01:06:38;;;;;;;0.05;0.05;;;;;;;20.84;59.30;101755.03;5052669;28;20029;-96
2021/08/15 01:09:06;;;;;;;0.20;0.20;;;;;;;20.84;58.61;101752.31;5050124;28;20134;-96
2021/08/15 01:11:35;;;;;;;0.20;0.20;;;;;;;20.84;58.68;101753.19;5051483;28;20087;-95
2021/08/15 01:14:05;;;;;;;0.10;0.10;;;;;;;20.86;58.82;101745.06;5048836;28;20067;-92
2021/08/15 01:16:36;;;;;;;0.30;0.30;;;;;;;20.91;58.92;101740.31;5051431;28;20603;-94
2021/08/15 01:19:03;;;;;;;0.10;0.10;;;;;;;20.93;58.50;101745.63;5051106;28;20021;-93
2021/08/15 01:21:29;;;;;;;0.20;0.20;;;;;;;20.92;58.86;101736.66;5051181;28;20035;-94
2021/08/15 01:23:56;;;;;;;0.17;0.17;;;;;;;20.92;58.69;101728.59;5051216;28;20021;-94
2021/08/15 01:26:23;;;;;;;0.08;0.08;;;;;;;20.93;58.66;101724.91;5051772;28;20060;-94
2021/08/15 01:28:52;;;;;;;0.10;0.10;;;;;;;20.90;59.20;101719.69;5051843;28;20025;-95
2021/08/15 01:31:21;;;;;;;0.15;0.15;;;;;;;20.91;59.01;101713.38;5051416;28;20233;-93
2021/08/15 01:33:48;;;;;;;0.28;0.20;;;;;;;20.91;58.82;101717.88;5051510;28;20025;-93
2021/08/15 01:36:17;;;;;;;0.35;0.35;;;;;;;20.94;59.04;101726.66;5051299;28;20040;-92
2021/08/15 01:38:45;;;;;;;0.88;0.57;;;;;;;20.96;59.00;101730.16;5051224;28;20036;-94
2021/08/15 01:41:12;;;;;;;0.10;0.10;;;;;;;20.95;58.95;101728.41;5049009;28;20021;-93
2021/08/15 01:43:55;;;;;;;0.00;0.00;;;;;;;21.05;58.96;101722.56;5051397;28;20515;-95
2021/08/15 01:46:24;;;;;;;0.00;0.00;;;;;;;21.03;58.80;101719.09;5049887;28;20391;-95
2021/08/15 01:48:51;;;;;;;0.00;0.00;;;;;;;21.09;58.81;101710.69;5048357;28;20032;-94
2021/08/15 01:51:19;;;;;;;0.10;0.10;;;;;;;21.09;58.61;101713.41;5050986;28;20040;-94
2021/08/15 01:53:48;;;;;;;0.20;0.20;;;;;;;21.11;58.36;101715.06;5051802;28;20044;-93
2021/08/15 01:56:14;;;;;;;0.10;0.10;;;;;;;21.08;58.34;101717.03;5049469;28;20391;-93
2021/08/15 01:58:45;;;;;;;0.10;0.10;;;;;;;20.98;58.77;101714.78;5052775;28;20054;-96
2021/08/15 02:01:20;;;;;;;0.10;0.10;;;;;;;20.97;58.85;101713.06;5052332;28;20029;-96
2021/08/15 02:03:48;;;;;;;0.10;0.10;;;;;;;20.90;59.20;101708.03;5205197;22;20158;-95
2021/08/15 02:06:18;;;;;;;0.00;0.00;;;;;;;20.88;58.97;101705.44;5059677;28;20036;-96
2021/08/15 02:08:46;;;;;;;0.43;0.43;;;;;;;20.82;58.98;101705.72;5047472;28;20087;-96
2021/08/15 02:11:13;;;;;;;0.00;0.00;;;;;;;20.88;59.29;101691.97;5046699;28;20025;-96
2021/08/15 02:13:40;;;;;;;0.10;0.10;;;;;;;20.89;58.84;101680.25;5050862;28;20083;-94
2021/08/15 02:16:07;;;;;;;0.00;0.00;;;;;;;20.88;58.82;101681.19;5057028;28;20025;-94
2021/08/15 02:18:33;;;;;;;0.10;0.10;;;;;;;20.90;58.92;101678.41;5057167;28;20029;-94
2021/08/15 02:21:00;;;;;;;0.10;0.10;;;;;;;20.89;58.79;101680.25;5058394;28;20025;-93
2021/08/15 02:23:26;;;;;;;0.10;0.10;;;;;;;20.88;59.12;101677.63;5068506;28;20021;-94
2021/08/15 02:25:53;;;;;;;0.03;0.03;;;;;;;20.85;59.35;101662.50;5060576;28;20472;-92
2021/08/15 02:28:20;;;;;;;0.00;0.00;;;;;;;20.83;59.49;101659.84;5054740;28;20075;-88
2021/08/15 02:30:46;;;;;;;0.10;0.10;;;;;;;20.81;59.84;101656.38;5056062;28;20032;-96
2021/08/15 02:33:13;;;;;;;0.10;0.10;;;;;;;20.85;59.19;101659.81;5056213;28;20423;-94
2021/08/15 02:35:39;;;;;;;0.00;0.00;;;;;;;20.79;60.10;101658.28;5055649;28;20021;-93
2021/08/15 02:38:06;;;;;;;0.10;0.10;;;;;;;20.80;60.07;101646.56;5049852;28;20447;-95
2021/08/15 02:40:32;;;;;;;0.00;0.00;;;;;;;20.80;59.02;101653.78;5045675;28;20037;-96
2021/08/15 02:42:59;;;;;;;0.45;0.45;;;;;;;20.76;59.93;101647.69;5051822;28;20029;-95
2021/08/15 02:45:26;;;;;;;0.08;0.08;;;;;;;20.75;59.56;101650.41;5053266;28;20027;-95
2021/08/15 02:47:54;;;;;;;0.10;0.10;;;;;;;20.74;60.01;101638.78;5055134;28;20441;-95
2021/08/15 02:50:22;;;;;;;0.22;0.22;;;;;;;20.68;60.31;101642.63;5054785;28;20049;-95
2021/08/15 02:52:49;;;;;;;3.83;1.75;;;;;;;20.61;60.33;101633.13;5054651;28;20079;-94
2021/08/15 02:55:16;;;;;;;0.00;0.00;;;;;;;20.59;60.90;101626.94;5054874;28;20491;-95
2021/08/15 02:57:43;;;;;;;0.00;0.00;;;;;;;20.60;60.46;101633.19;5054730;28;20032;-95
2021/08/15 03:00:12;;;;;;;0.10;0.10;;;;;;;20.63;60.42;101641.97;5055205;28;20055;-95
2021/08/15 03:02:39;;;;;;;0.00;0.00;;;;;;;20.58;60.76;101621.63;5054665;28;20037;-96
2021/08/15 03:05:07;;;;;;;0.13;0.13;;;;;;;20.56;60.74;101639.69;5046348;28;20108;-95
2021/08/15 03:07:33;;;;;;;0.22;0.22;;;;;;;20.56;60.50;101637.88;5050752;28;20033;-92
2021/08/15 03:10:00;;;;;;;0.10;0.10;;;;;;;20.53;60.83;101636.19;5053978;28;20111;-94
2021/08/15 03:12:27;;;;;;;0.10;0.10;;;;;;;20.53;60.67;101655.03;5045873;28;20025;-94
2021/08/15 03:14:53;;;;;;;0.98;0.98;;;;;;;20.51;60.66;101647.97;5034717;28;20452;-94
2021/08/15 03:17:19;;;;;;;0.15;0.15;;;;;;;20.42;61.16;101640.34;5035892;28;20500;-94
2021/08/15 03:19:46;;;;;;;0.10;0.10;;;;;;;20.46;61.08;101644.63;5034807;28;20036;-95
2021/08/15 03:22:12;;;;;;;0.08;0.08;;;;;;;20.47;60.41;101641.00;5034246;28;20034;-93
2021/08/15 03:24:39;;;;;;;0.10;0.10;;;;;;;20.56;60.48;101648.66;5035595;28;20030;-93
2021/08/15 03:27:05;;;;;;;0.00;0.00;;;;;;;20.58;60.24;101643.16;5034642;28;20152;-94
2021/08/15 03:29:32;;;;;;;0.10;0.10;;;;;;;20.57;60.47;101631.50;5035103;28;20421;-95
2021/08/15 03:31:58;;;;;;;0.13;0.13;;;;;;;20.57;60.36;101636.91;5035186;28;20499;-94
2021/08/15 03:34:25;;;;;;;0.30;0.30;;;;;;;20.58;60.12;101637.78;5034837;28;20380;-94
2021/08/15 03:37:01;;;;;;;0.30;0.10;;;;;;;20.58;60.82;101646.72;5034762;28;20033;-94
2021/08/15 03:39:44;;;;;;;0.20;0.20;;;;;;;20.59;60.64;101639.53;5034374;28;20657;-93
2021/08/15 03:42:19;;;;;;;0.80;0.80;;;;;;;20.61;60.05;101637.63;5034261;28;20041;-93
2021/08/15 03:44:45;;;;;;;0.03;0.03;;;;;;;20.59;60.82;101635.00;5034138;28;20052;-94
2021/08/15 03:47:12;;;;;;;0.03;0.03;;;;;;;20.58;61.13;101632.41;5034227;28;20037;-95
2021/08/15 03:49:38;;;;;;;0.10;0.10;;;;;;;20.60;60.77;101623.31;5035085;28;20032;-94
2021/08/15 03:52:05;;;;;;;0.15;0.15;;;;;;;20.60;60.93;101620.59;5034812;28;20531;-93
2021/08/15 03:54:31;;;;;;;0.08;0.08;;;;;;;20.62;60.49;101624.09;5034240;28;20029;-94
2021/08/15 03:56:57;;;;;;;0.43;0.43;;;;;;;20.64;60.60;101610.56;5034336;28;20638;-94
2021/08/15 03:59:24;;;;;;;0.00;0.00;;;;;;;20.64;60.99;101600.66;5033844;28;20033;-94
2021/08/15 04:01:50;;;;;;;0.10;0.10;;;;;;;20.60;61.44;101608.94;5034418;28;20377;-93
2021/08/15 04:04:17;;;;;;;0.00;0.00;;;;;;;20.59;61.49;101591.94;5034385;28;20538;-93
2021/08/15 04:06:44;;;;;;;0.03;0.03;;;;;;;20.58;61.00;101602.78;5034210;28;20420;-94
2021/08/15 04:09:11;;;;;;;0.00;0.00;;;;;;;20.54;61.87;101610.16;5034335;28;20022;-94
2021/08/15 04:11:39;;;;;;;3.30;1.33;;;;;;;20.46;62.44;101601.56;5034831;28;20037;-95
2021/08/15 04:14:05;;;;;;;0.43;0.43;;;;;;;20.50;61.57;101603.19;5034592;28;20413;-94
2021/08/15 04:16:32;;;;;;;0.00;0.00;;;;;;;20.49;61.38;101609.50;5034532;28;20029;-95
2021/08/15 04:18:58;;;;;;;0.93;0.43;;;;;;;20.48;61.53;101605.06;5034331;28;20457;-95
2021/08/15 04:21:24;;;;;;;0.10;0.10;;;;;;;20.48;61.75;101603.22;5034057;28;20036;-93
2021/08/15 04:23:53;;;;;;;0.00;0.00;;;;;;;20.49;61.80;101602.28;5033160;28;20033;-94
2021/08/15 04:26:20;;;;;;;0.30;0.30;;;;;;;20.44;61.66;101592.72;5034694;28;20465;-94
2021/08/15 04:28:47;;;;;;;0.10;0.10;;;;;;;20.42;62.19;101587.38;5034199;28;20033;-94
2021/08/15 04:31:22;;;;;;;0.10;0.10;;;;;;;20.45;61.96;101576.47;5034389;28;20037;-94
2021/08/15 04:33:49;;;;;;;0.10;0.10;;;;;;;20.40;62.19;101569.56;5033995;28;20030;-94
2021/08/15 04:36:15;;;;;;;0.13;0.13;;;;;;;20.35;62.53;101570.69;5033185;28;20029;-94
2021/08/15 04:38:42;;;;;;;0.00;0.00;;;;;;;20.36;62.33;101574.22;5032593;28;20029;-93
2021/08/15 04:41:08;;;;;;;0.30;0.30;;;;;;;20.33;62.53;101571.72;5033867;28;20030;-94
2021/08/15 04:43:34;;;;;;;0.75;0.75;;;;;;;20.34;62.26;101574.31;5033281;28;20021;-93
2021/08/15 04:46:01;;;;;;;1.00;1.00;;;;;;;20.28;62.79;101571.94;5033883;28;20082;-95
2021/08/15 04:48:28;;;;;;;0.10;0.10;;;;;;;20.25;62.59;101564.03;5033796;28;20036;-94
2021/08/15 04:50:55;;;;;;;0.13;0.13;;;;;;;20.25;62.91;101566.72;5033885;28;20032;-94
2021/08/15 04:53:21;;;;;;;0.00;0.00;;;;;;;20.24;63.13;101562.28;5033461;28;20100;-92
2021/08/15 04:55:48;;;;;;;0.20;0.20;;;;;;;20.27;63.16;101563.94;5033761;28;20033;-93
2021/08/15 04:58:14;;;;;;;0.10;0.10;;;;;;;20.28;63.16;101563.00;5033116;28;20030;-95
2021/08/15 05:00:40;;;;;;;0.10;0.10;;;;;;;20.32;62.63;101568.13;5033662;28;20030;-96
2021/08/15 05:03:07;;;;;;;0.10;0.10;;;;;;;20.35;62.66;101551.84;5033036;28;20026;-94
2021/08/15 05:05:34;;;;;;;0.10;0.10;;;;;;;20.42;62.19;101555.09;5032697;28;20034;-94
2021/08/15 05:08:00;;;;;;;1.88;1.05;;;;;;;20.34;63.35;101554.63;5032438;28;20029;-94
2021/08/15 05:10:26;;;;;;;2.40;0.65;;;;;;;20.39;63.18;101551.69;5032543;28;20025;-94
2021/08/15 05:12:53;;;;;;;0.05;0.05;;;;;;;20.39;63.19;101551.69;5032751;28;20080;-93
2021/08/15 05:15:19;;;;;;;0.10;0.10;;;;;;;20.47;63.13;101554.88;5033112;28;20030;-93
2021/08/15 05:17:45;;;;;;;0.30;0.30;;;;;;;20.44;63.08;101549.66;5033531;28;20037;-92
2021/08/15 05:20:12;;;;;;;0.10;0.10;;;;;;;20.52;62.56;101558.19;5032559;28;20465;-93
2021/08/15 05:22:39;;;;;;;0.03;0.03;;;;;;;20.51;62.72;101560.03;5032739;28;20128;-93
2021/08/15 05:25:06;;;;;;;0.10;0.10;;;;;;;20.54;62.48;101556.31;5032637;28;20112;-94
2021/08/15 05:27:33;;;;;;;0.10;0.10;;;;;;;20.62;62.19;101564.88;5032866;28;20034;-91
2021/08/15 05:29:59;;;;;;;1.50;1.33;;;;;;;20.62;62.74;101563.97;5032264;28;20033;-93
2021/08/15 05:32:26;;;;;;;0.20;0.20;;;;;;;20.59;62.83;101561.47;5033060;28;20071;-93
2021/08/15 05:34:52;;;;;;;0.00;0.00;;;;;;;20.61;63.08;101573.00;5032626;28;20492;-92
2021/08/15 05:37:18;;;;;;;0.30;0.30;;;;;;;20.73;62.54;101560.78;5040558;28;20033;-93
2021/08/15 05:39:45;;;;;;;0.10;0.10;;;;;;;20.82;62.06;101555.78;5045105;28;20384;-93
2021/08/15 05:42:11;;;;;;;0.13;0.13;;;;;;;20.80;62.13;101562.22;5042076;28;20052;-93
2021/08/15 05:44:37;;;;;;;0.32;0.32;;;;;;;20.85;61.91;101549.38;5037779;28;20041;-94
2021/08/15 05:47:04;;;;;;;0.20;0.20;;;;;;;20.86;62.67;101548.44;5036614;28;20065;-93
2021/08/15 05:49:31;;;;;;;0.08;0.08;;;;;;;20.94;62.54;101548.88;5036918;28;20108;-92
2021/08/15 05:51:58;;;;;;;0.10;0.10;;;;;;;20.96;62.57;101544.28;5036450;28;20037;-93
2021/08/15 05:54:24;;;;;;;0.08;0.08;;;;;;;20.97;62.42;101545.16;5036146;28;20037;-94
2021/08/15 05:56:50;;;;;;;0.15;0.15;;;;;;;21.06;62.15;101543.78;5037214;28;20349;-93
2021/08/15 05:59:16;;;;;;;0.10;0.10;;;;;;;21.10;61.81;101542.69;5036229;28;20033;-93
2021/08/15 06:01:43;;;;;;;0.10;0.10;;;;;;;21.14;62.06;101544.28;5036368;28;20053;-93
2021/08/15 06:04:09;;;;;;;0.10;0.10;;;;;;;21.15;62.22;101551.41;5036082;28;20400;-92
2021/08/15 06:06:35;;;;;;;0.32;0.32;;;;;;;21.26;61.89;101543.59;5035992;28;20067;-94
2021/08/15 06:09:02;;;;;;;0.47;0.47;;;;;;;21.32;61.64;101547.78;5035531;28;20564;-93
2021/08/15 06:11:28;;;;;;;0.10;0.10;;;;;;;21.31;61.63;101544.22;5035757;28;20487;-92
2021/08/15 06:13:57;;;;;;;0.10;0.10;;;;;;;21.32;61.63;101543.28;5035531;28;20044;-93
2021/08/15 06:16:24;;;;;;;0.47;0.40;;;;;;;21.42;61.47;101537.38;5035793;28;20022;-93
2021/08/15 06:18:51;;;;;;;0.75;0.75;;;;;;;21.47;61.28;101540.69;5035904;28;20025;-93
2021/08/15 06:21:17;;;;;;;0.00;0.00;;;;;;;21.56;61.34;101540.22;5035948;28;20022;-93
2021/08/15 06:23:44;;;;;;;0.22;0.22;;;;;;;21.61;61.20;101538.13;5035964;28;20373;-93
2021/08/15 06:26:10;;;;;;;0.10;0.10;;;;;;;21.57;61.20;101533.00;5036064;28;20037;-93
2021/08/15 06:28:36;;;;;;;0.30;0.30;;;;;;;;;;5035579;28;20449;-94
2021/08/15 06:31:02;;;;;;;0.80;0.80;;;;;;;21.63;61.31;101535.34;5040571;28;20036;-94
2021/08/15 06:33:28;;;;;;;0.08;0.08;;;;;;;21.63;61.19;101524.56;5055850;28;20472;-93
2021/08/15 06:35:54;;;;;;;0.10;0.10;;;;;;;21.68;61.00;101527.00;5050510;28;20119;-93
2021/08/15 06:38:21;;;;;;;0.00;0.00;;;;;;;21.67;61.17;101534.25;5045549;28;20076;-93
2021/08/15 06:40:47;;;;;;;0.55;0.47;;;;;;;21.69;61.37;101531.44;5038187;28;20026;-93
2021/08/15 06:43:13;;;;;;;0.10;0.10;;;;;;;21.76;61.00;101527.47;5035858;28;20128;-91
2021/08/15 06:45:41;;;;;;;0.10;0.10;;;;;;;21.81;61.11;101525.38;5035206;28;20025;-93
2021/08/15 06:48:07;;;;;;;0.20;0.20;;;;;;;21.89;60.91;101530.31;5034935;28;20152;-93
2021/08/15 06:50:34;;;;;;;2.90;1.20;;;;;;;21.90;60.81;101524.84;5034711;28;20028;-94
2021/08/15 06:53:01;;;;;;;0.50;0.50;;;;;;;21.93;60.81;101526.47;5035626;28;20029;-93
2021/08/15 06:55:27;;;;;;;0.22;0.22;;;;;;;22.01;60.56;101528.72;5035208;28;20128;-92
2021/08/15 06:57:53;;;;;;;0.05;0.05;;;;;;;21.98;60.88;101535.19;5035428;28;20049;-93
2021/08/15 07:00:20;;;;;;;0.77;0.40;;;;;;;21.95;61.02;101538.06;5034631;28;20034;-93
2021/08/15 07:02:49;;;;;;;0.10;0.10;;;;;;;22.00;60.56;101535.13;5042889;28;20032;-93
2021/08/15 07:05:16;;;;;;;0.10;0.10;;;;;;;22.01;60.53;101534.13;5044064;28;20063;-93
2021/08/15 07:07:43;;;;;;;0.22;0.17;;;;;;;21.88;60.87;101524.06;5043556;28;20493;-94
2021/08/15 07:10:10;;;;;;;0.10;0.10;;;;;;;21.82;61.09;101529.81;5026986;28;20036;-93
2021/08/15 07:12:36;;;;;;;0.28;0.28;;;;;;;21.82;61.37;101524.41;5044985;28;20030;-93
2021/08/15 07:15:03;;;;;;;0.40;0.30;;;;;;;21.80;61.46;101527.19;5043225;28;20029;-94
2021/08/15 07:17:30;;;;;;;0.20;0.20;;;;;;;21.89;61.58;101531.19;5044965;28;20089;-94
2021/08/15 07:19:56;;;;;;;0.28;0.28;;;;;;;21.89;61.41;101523.09;5045083;28;20033;-92
2021/08/15 07:22:22;;;;;;;2.92;1.15;;;;;;;22.03;61.09;101526.81;5044383;28;20025;-93
2021/08/15 07:24:48;;;;;;;0.47;0.47;;;;;;;21.87;60.94;101529.53;5042450;28;20032;-95
2021/08/15 07:27:15;;;;;;;2.75;1.15;;;;;;;22.04;60.59;101528.56;5042899;28;20068;-93
2021/08/15 07:29:41;;;;;;;0.65;0.65;;;;;;;21.98;60.90;101525.28;5043830;28;20033;-94
2021/08/15 07:32:07;;;;;;;0.68;0.68;;;;;;;22.21;60.56;101523.06;5044436;28;20021;-94
2021/08/15 07:34:34;;;;;;;0.30;0.30;;;;;;;22.26;60.13;101530.91;5041561;28;20026;-96
2021/08/15 07:37:00;;;;;;;0.10;0.10;;;;;;;22.25;59.85;101521.06;5046973;28;20025;-95
2021/08/15 07:39:26;;;;;;;0.00;0.00;;;;;;;22.43;59.72;101519.13;5054503;28;20112;-94
2021/08/15 07:41:52;;;;;;;0.10;0.10;;;;;;;22.58;59.36;101522.72;5054103;28;20033;-93
2021/08/15 07:44:18;;;;;;;0.32;0.32;;;;;;;22.48;59.98;101516.16;5054315;28;20028;-95
2021/08/15 07:46:44;;;;;;;0.25;0.25;;;;;;;22.59;59.68;101514.56;5042197;28;20025;-94
2021/08/15 07:49:11;;;;;;;0.00;0.00;;;;;;;22.72;59.77;101521.94;5034962;28;20034;-94
2021/08/15 07:51:37;;;;;;;1.23;1.05;;;;;;;22.73;59.09;101520.94;5046753;28;20181;-94
2021/08/15 07:54:03;;;;;;;0.70;0.70;;;;;;;22.74;58.96;101520.88;5054246;28;20360;-93
2021/08/15 07:56:29;;;;;;;0.10;0.10;;;;;;;22.85;58.90;101520.19;5041537;28;20033;-94
2021/08/15 07:58:55;;;;;;;0.10;0.10;;;;;;;22.97;58.07;101513.19;5033067;28;20444;-95
2021/08/15 08:01:22;;;;;;;1.35;1.00;;;;;;;23.00;57.93;101520.22;5043897;28;20029;-95
2021/08/15 08:03:48;;;;;;;0.32;0.32;;;;;;;23.01;57.42;101511.16;5053874;28;20073;-95
2021/08/15 08:06:14;;;;;;;0.20;0.20;;;;;;;23.08;57.21;101515.22;5050069;28;20435;-95
2021/08/15 08:08:41;;;;;;;0.20;0.20;;;;;;;23.16;57.07;101518.31;5053482;28;20029;-93
2021/08/15 08:11:07;;;;;;;0.10;0.10;;;;;;;23.19;56.83;101518.16;5044262;28;20057;-94
2021/08/15 08:13:33;;;;;;;1.55;0.30;;;;;;;23.22;55.06;101517.09;5033772;28;20021;-95
2021/08/15 08:15:59;;;;;;;1.35;0.68;;;;;;;23.23;55.52;101511.59;5041119;28;20033;-94
2021/08/15 08:18:26;;;;;;;0.05;0.05;;;;;;;23.55;55.49;101511.38;5053308;28;20025;-93
2021/08/15 08:20:53;;;;;;;0.25;0.25;;;;;;;23.59;55.60;101506.63;5049226;28;20071;-92
2021/08/15 08:23:19;;;;;;;0.10;0.10;;;;;;;23.78;55.39;101505.44;5042707;28;20434;-91
2021/08/15 08:25:46;;;;;;;0.20;0.20;;;;;;;23.74;54.43;101510.19;5042348;28;20388;-91
2021/08/15 08:28:13;;;;;;;0.52;0.52;;;;;;;23.66;54.16;101509.81;5049420;28;20033;-92
2021/08/15 08:30:40;;;;;;;0.10;0.10;;;;;;;23.75;54.13;101501.06;5051873;28;20032;-92
2021/08/15 08:33:06;;;;;;;0.57;0.57;;;;;;;23.75;53.66;101503.78;5051320;28;20071;-93
2021/08/15 08:35:35;;;;;;;0.43;0.43;;;;;;;23.92;53.72;101504.56;5053244;28;20105;-95
2021/08/15 08:38:02;;;;;;;0.32;0.32;;;;;;;24.00;53.76;101496.78;5052703;28;20021;-92
2021/08/15 08:40:28;;;;;;;0.10;0.10;;;;;;;24.02;52.83;101494.84;5054683;28;20057;-93
2021/08/15 08:42:56;;;;;;;2.53;0.38;;;;;;;24.02;52.68;101489.44;5052146;28;20036;-95
2021/08/15 08:45:24;;;;;;;0.65;0.65;;;;;;;24.01;52.11;101494.00;5052218;28;20028;-93
2021/08/15 08:47:52;;;;;;;0.10;0.10;;;;;;;23.95;52.18;101496.22;5054015;28;20496;-95
2021/08/15 08:50:19;;;;;;;0.10;0.10;;;;;;;24.22;52.55;101494.41;5053842;28;20036;-92
2021/08/15 08:52:47;;;;;;;0.10;0.10;;;;;;;24.23;52.29;101481.72;5055109;28;20094;-93
2021/08/15 08:55:14;;;;;;;0.10;0.10;;;;;;;24.40;52.48;101488.69;5065055;28;20052;-94
2021/08/15 08:57:41;;;;;;;0.25;0.25;;;;;;;24.51;52.21;101486.13;5068129;28;20112;-94
2021/08/15 09:00:08;;;;;;;0.10;0.10;;;;;;;24.42;51.53;101492.16;5053687;28;20508;-92
2021/08/15 09:02:38;;;;;;;3.92;1.13;;;;;;;24.46;51.13;101490.97;5050029;28;20029;-92
2021/08/15 09:05:06;;;;;;;0.30;0.30;;;;;;;24.39;50.69;101500.50;5051596;28;20039;-93
2021/08/15 09:07:35;;;;;;;0.10;0.10;;;;;;;24.34;50.42;101499.94;5051455;28;20052;-94
2021/08/15 09:10:02;;;;;;;0.32;0.32;;;;;;;24.66;49.92;101483.31;5054576;28;20555;-95
2021/08/15 09:15:21;;;;;;;0.10;0.10;;;;;;;24.85;49.59;101481.06;5122800;27;20393;-94
2021/08/15 09:17:49;;;;;;;0.75;0.75;;;;;;;24.85;48.91;101478.34;5116888;28;20036;-94
2021/08/15 09:20:23;;;;;;;0.10;0.10;;;;;;;25.04;49.01;101474.34;5110438;28;20032;-92
2021/08/15 09:22:49;;;;;;;0.10;0.10;;;;;;;25.05;49.43;101476.09;5118812;28;20023;-94
2021/08/15 09:25:19;;;;;;;0.10;0.10;;;;;;;25.11;48.59;101472.94;5127525;28;20036;-92
2021/08/15 09:30:33;;;;;;;0.10;0.10;;;;;;;25.11;47.76;101472.94;5068267;27;20430;-91
2021/08/15 09:33:03;;;;;;;0.45;0.45;;;;;;;25.31;47.74;101478.75;5071515;28;20040;-89
2021/08/15 09:35:52;;;;;;;0.35;0.35;;;;;;;25.24;47.67;101472.06;5072988;28;20109;-95
2021/08/15 09:38:19;;;;;;;0.50;0.43;;;;;;;25.29;47.07;101470.72;5066500;28;20120;-94
2021/08/15 09:40:51;;;;;;;0.77;0.77;;;;;;;25.50;47.33;101465.59;5060518;28;20025;-95
2021/08/15 09:43:22;;;;;;;0.88;0.88;;;;;;;25.49;46.21;101458.44;5059453;28;20539;-95
2021/08/15 09:45:50;;;;;;;0.10;0.10;;;;;;;25.62;46.59;101460.25;5062511;28;20021;-94
2021/08/15 09:48:38;;;;;;;0.30;0.30;;;;;;;25.89;46.94;101451.03;5060642;28;20044;-89
2021/08/15 09:53:59;;;;;;;1.48;1.05;;;;;;;26.02;46.01;101450.97;5069437;28;20767;-93
2021/08/15 09:59:37;;;;;;;1.90;0.68;;;;;;;26.11;46.19;101453.03;5130577;27;20410;-96
2021/08/15 10:02:05;;;;;;;0.20;0.20;;;;;;;25.87;45.96;101445.72;5108529;28;20032;-89
2021/08/15 10:04:32;;;;;;;0.22;0.22;;;;;;;26.04;46.31;101444.44;5109009;28;20097;-87
2021/08/15 10:07:02;;;;;;;0.55;0.55;;;;;;;25.98;46.10;101448.50;5109132;28;20160;-89
2021/08/15 10:09:30;;;;;;;1.75;1.65;;;;;;;26.09;45.60;101449.53;5106732;28;20036;-88
2021/08/15 10:11:57;;;;;;;0.35;0.35;;;;;;;26.28;45.45;101449.88;5110549;28;20020;-92
2021/08/15 10:14:23;;;;;;;1.00;0.80;;;;;;;26.16;45.52;101437.25;5104419;28;20085;-92
2021/08/15 10:16:59;;;;;;;0.17;0.17;;;;;;;26.15;44.73;101449.09;5111136;28;20024;-94
2021/08/15 10:19:52;;;;;;;0.22;0.22;;;;;;;26.57;45.42;101440.44;5131423;27;20024;-94
2021/08/15 10:22:24;;;;;;;0.10;0.10;;;;;;;26.20;44.69;101443.31;5131108;27;20118;-94
2021/08/15 10:24:52;;;;;;;;;;;;;;;26.77;44.27;101423.44;5131037;28;20037;-94
2021/08/15 10:36:24;;;;;;;0.55;0.55;;;;;;;26.40;45.79;101423.59;5007206;28;20466;-94
2021/08/15 10:38:52;;;;;;;0.30;0.30;;;;;;;26.45;46.21;101418.66;5007400;28;20062;-93
2021/08/15 10:44:25;;;;;;;0.22;0.22;;;;;;;26.45;46.96;101415.94;5173365;27;20763;-92
2021/08/15 10:47:12;;;;;;;0.13;0.13;;;;;;;26.47;47.54;101403.09;5173602;27;20031;-92
2021/08/15 10:49:56;;;;;;;0.82;0.28;;;;;;;26.22;47.45;101406.00;5172847;27;20026;-94
2021/08/15 10:52:40;;;;;;;0.30;0.30;;;;;;;26.41;47.65;101394.59;5173116;27;20065;-95
2021/08/15 10:55:09;;;;;;;0.20;0.20;;;;;;;26.59;47.66;101400.41;5172767;27;20027;-94
2021/08/15 11:05:54;;;;;;;0.20;0.20;;;;;;;26.68;47.03;101396.97;5090662;28;20532;-93
2021/08/15 11:11:25;;;;;;;0.10;0.10;;;;;;;26.63;47.12;101397.31;5131553;27;20395;-93
2021/08/15 11:19:43;;;;;;;0.00;0.00;;;;;;;26.58;47.63;101382.38;5081135;27;20467;-94
2021/08/15 11:22:27;;;;;;;0.10;0.10;;;;;;;26.69;47.31;101386.94;5070683;28;20040;-92
2021/08/15 11:24:57;;;;;;;0.10;0.10;;;;;;;26.69;46.79;101385.09;5070598;28;20037;-92
2021/08/15 11:27:28;;;;;;;0.22;0.22;;;;;;;26.57;47.30;101384.22;5070733;28;20379;-94
2021/08/15 11:29:55;;;;;;;0.68;0.20;;;;;;;26.76;47.32;101380.94;5070410;28;20041;-93
2021/08/15 11:32:26;;;;;;;0.20;0.20;;;;;;;26.57;47.60;101376.06;5070690;28;20028;-93
2021/08/15 11:34:58;;;;;;;0.10;0.10;;;;;;;26.86;47.20;101380.19;5070351;28;20029;-93
2021/08/15 11:37:31;;;;;;;0.10;0.10;;;;;;;26.63;47.17;101380.13;5070743;28;20086;-94
2021/08/15 11:40:11;;;;;;;1.60;1.50;;;;;;;26.68;46.95;101375.22;5070610;28;20093;-91
2021/08/15 11:42:37;;;;;;;0.20;0.20;;;;;;;26.73;47.27;101383.88;5070535;28;20033;-95
2021/08/15 11:45:05;;;;;;;0.90;0.30;;;;;;;26.69;47.03;101384.22;5070358;28;20036;-93
2021/08/15 11:47:33;;;;;;;0.30;0.30;;;;;;;26.95;46.47;101374.00;5070357;28;20029;-91
2021/08/15 11:50:11;;;;;;;0.10;0.10;;;;;;;27.04;45.40;101373.28;5069849;28;20411;-94
2021/08/15 11:52:37;;;;;;;0.10;0.10;;;;;;;27.07;45.70;101367.56;5070262;28;20128;-93
2021/08/15 11:55:16;;;;;;;0.20;0.20;;;;;;;27.07;45.20;101367.56;5069917;28;20036;-95
2021/08/15 11:57:46;;;;;;;0.10;0.10;;;;;;;27.04;46.70;101369.66;5069897;28;20334;-93
2021/08/15 12:00:13;;;;;;;0.20;0.20;;;;;;;27.09;45.67;101365.59;5070414;28;20086;-95
2021/08/15 12:02:39;;;;;;;0.57;0.57;;;;;;;27.33;46.12;101359.09;5070147;28;20029;-94
2021/08/15 12:05:07;;;;;;;0.13;0.13;;;;;;;27.63;45.18;101354.84;5069528;28;20032;-93
2021/08/15 12:07:33;;;;;;;0.95;0.95;;;;;;;27.69;44.62;101357.03;5069583;28;20076;-94
2021/08/15 12:10:39;;;;;;;0.10;0.10;;;;;;;28.17;43.78;101344.78;5073151;28;20056;-93
2021/08/15 12:21:29;;;;;;;0.08;0.08;;;;;;;28.55;43.51;101337.84;5111069;27;20399;-94
2021/08/15 12:29:37;;;;;;;0.10;0.10;;;;;;;28.49;43.72;101334.81;5085364;27;20853;-95
2021/08/15 12:32:29;;;;;;;0.00;0.00;;;;;;;28.37;42.83;101337.59;5070425;28;20060;-95